sensor_id;sensor_type;location;lat;lon;timestamp;pressure;altitude;pressure_sealevel;temperature;humidity
25664;BME280;13522;50.018;20.014;2023-09-19T00:00:32;98194.45;;;17.76;100.00
25664;BME280;13522;50.018;20.014;2023-09-19T00:03:46;98194.88;;;17.80;100.00
25664;BME280;13522;50.018;20.014;2023-09-19T00:06:59;98184.94;;;17.74;100.00
25664;BME280;13522;50.018;20.014;2023-09-19T00:10:12;98180.39;;;17.81;100.00
25664;BME280;13522;50.018;20.014;2023-09-19T00:13:25;98172.59;;;17.92;100.00
25664;BME280;13522;50.018;20.014;2023-09-19T00:16:38;98180.86;;;18.10;100.00
25664;BME280;13522;50.018;20.014;2023-09-19T00:19:53;98183.16;;;18.13;100.00
25664;BME280;13522;50.018;20.014;2023-09-19T00:23:08;98187.92;;;18.18;100.00
25664;BME280;13522;50.018;20.014;2023-09-19T00:26:20;98176.52;;;18.03;100.00
25664;BME280;13522;50.018;20.014;2023-09-19T00:29:34;98173.41;;;17.99;100.00
25664;BME280;13522;50.018;20.014;2023-09-19T00:32:48;98173.22;;;17.94;100.00
25664;BME280;13522;50.018;20.014;2023-09-19T00:36:03;98171.55;;;17.93;100.00
25664;BME280;13522;50.018;20.014;2023-09-19T00:39:16;98176.53;;;18.09;100.00
25664;BME280;13522;50.018;20.014;2023-09-19T00:42:28;98176.13;;;18.19;100.00
25664;BME280;13522;50.018;20.014;2023-09-19T00:45:45;98179.41;;;18.14;100.00
25664;BME280;13522;50.018;20.014;2023-09-19T00:48:58;98175.09;;;18.13;100.00
25664;BME280;13522;50.018;20.014;2023-09-19T00:52:11;98179.63;;;18.13;100.00
25664;BME280;13522;50.018;20.014;2023-09-19T00:55:27;98163.52;;;18.19;100.00
25664;BME280;13522;50.018;20.014;2023-09-19T00:58:43;98169.70;;;18.27;100.00
25664;BME280;13522;50.018;20.014;2023-09-19T01:01:56;98173.24;;;18.34;100.00
25664;BME280;13522;50.018;20.014;2023-09-19T01:05:10;98180.50;;;18.53;100.00
25664;BME280;13522;50.018;20.014;2023-09-19T01:08:23;98185.45;;;18.69;100.00
25664;BME280;13522;50.018;20.014;2023-09-19T01:11:42;98175.34;;;18.58;100.00
25664;BME280;13522;50.018;20.014;2023-09-19T01:14:59;98179.47;;;18.47;100.00
25664;BME280;13522;50.018;20.014;2023-09-19T01:18:20;98180.05;;;18.36;100.00
25664;BME280;13522;50.018;20.014;2023-09-19T01:21:39;98165.16;;;18.20;100.00
25664;BME280;13522;50.018;20.014;2023-09-19T01:25:20;98155.66;;;18.11;100.00
25664;BME280;13522;50.018;20.014;2023-09-19T01:29:06;98155.02;;;17.90;100.00
25664;BME280;13522;50.018;20.014;2023-09-19T01:32:26;98153.14;;;17.84;100.00
25664;BME280;13522;50.018;20.014;2023-09-19T01:35:40;98143.59;;;17.75;100.00
25664;BME280;13522;50.018;20.014;2023-09-19T01:38:54;98139.88;;;17.69;100.00
25664;BME280;13522;50.018;20.014;2023-09-19T01:42:15;98137.19;;;17.69;100.00
25664;BME280;13522;50.018;20.014;2023-09-19T01:45:34;98140.30;;;17.66;100.00
25664;BME280;13522;50.018;20.014;2023-09-19T01:48:57;98141.55;;;17.70;100.00
25664;BME280;13522;50.018;20.014;2023-09-19T01:52:13;98137.81;;;17.71;100.00
25664;BME280;13522;50.018;20.014;2023-09-19T01:55:28;98137.42;;;17.74;100.00
25664;BME280;13522;50.018;20.014;2023-09-19T01:58:46;98129.76;;;17.71;100.00
25664;BME280;13522;50.018;20.014;2023-09-19T02:02:02;98135.34;;;17.70;100.00
25664;BME280;13522;50.018;20.014;2023-09-19T02:05:23;98129.97;;;17.70;100.00
25664;BME280;13522;50.018;20.014;2023-09-19T02:08:36;98132.87;;;17.68;100.00
25664;BME280;13522;50.018;20.014;2023-09-19T02:11:48;98129.55;;;17.66;100.00
25664;BME280;13522;50.018;20.014;2023-09-19T02:15:03;98119.20;;;17.63;100.00
25664;BME280;13522;50.018;20.014;2023-09-19T02:18:17;98109.90;;;17.59;100.00
25664;BME280;13522;50.018;20.014;2023-09-19T02:21:29;98109.72;;;17.61;100.00
25664;BME280;13522;50.018;20.014;2023-09-19T02:24:41;98118.79;;;17.60;100.00
25664;BME280;13522;50.018;20.014;2023-09-19T02:27:54;98111.78;;;17.59;100.00
25664;BME280;13522;50.018;20.014;2023-09-19T02:31:07;98109.09;;;17.59;100.00
25664;BME280;13522;50.018;20.014;2023-09-19T02:34:20;98105.36;;;17.60;100.00
25664;BME280;13522;50.018;20.014;2023-09-19T02:37:33;98104.34;;;17.61;100.00
25664;BME280;13522;50.018;20.014;2023-09-19T02:40:46;98103.30;;;17.62;100.00
25664;BME280;13522;50.018;20.014;2023-09-19T02:43:58;98095.66;;;17.65;100.00
25664;BME280;13522;50.018;20.014;2023-09-19T02:47:12;98092.35;;;17.63;100.00
25664;BME280;13522;50.018;20.014;2023-09-19T02:50:26;98093.59;;;17.67;100.00
25664;BME280;13522;50.018;20.014;2023-09-19T02:53:39;98090.30;;;17.59;100.00
25664;BME280;13522;50.018;20.014;2023-09-19T02:56:53;98075.83;;;17.60;100.00
25664;BME280;13522;50.018;20.014;2023-09-19T03:00:07;98076.23;;;17.63;100.00
25664;BME280;13522;50.018;20.014;2023-09-19T03:03:20;98074.19;;;17.59;100.00
25664;BME280;13522;50.018;20.014;2023-09-19T03:06:35;98073.75;;;17.55;100.00
25664;BME280;13522;50.018;20.014;2023-09-19T03:09:48;98070.02;;;17.50;100.00
25664;BME280;13522;50.018;20.014;2023-09-19T03:13:01;98061.52;;;17.46;100.00
25664;BME280;13522;50.018;20.014;2023-09-19T03:16:15;98056.83;;;17.55;100.00
25664;BME280;13522;50.018;20.014;2023-09-19T03:19:29;98050.63;;;17.54;100.00
25664;BME280;13522;50.018;20.014;2023-09-19T03:22:44;98043.59;;;17.53;100.00
25664;BME280;13522;50.018;20.014;2023-09-19T03:25:59;98039.28;;;17.59;100.00
25664;BME280;13522;50.018;20.014;2023-09-19T03:29:12;98037.82;;;17.69;100.00
25664;BME280;13522;50.018;20.014;2023-09-19T03:32:24;98037.82;;;17.69;100.00
25664;BME280;13522;50.018;20.014;2023-09-19T03:35:36;98029.35;;;17.66;100.00
25664;BME280;13522;50.018;20.014;2023-09-19T03:38:50;98028.54;;;17.59;100.00
25664;BME280;13522;50.018;20.014;2023-09-19T03:42:03;98032.65;;;17.61;100.00
25664;BME280;13522;50.018;20.014;2023-09-19T03:45:16;98028.33;;;17.60;100.00
25664;BME280;13522;50.018;20.014;2023-09-19T03:48:30;98019.22;;;17.61;100.00
25664;BME280;13522;50.018;20.014;2023-09-19T03:51:42;98023.36;;;17.64;100.00
25664;BME280;13522;50.018;20.014;2023-09-19T03:54:54;98020.47;;;17.72;100.00
25664;BME280;13522;50.018;20.014;2023-09-19T03:58:07;98026.27;;;17.69;100.00
25664;BME280;13522;50.018;20.014;2023-09-19T04:01:20;98021.09;;;17.74;100.00
25664;BME280;13522;50.018;20.014;2023-09-19T04:04:34;98022.54;;;17.70;100.00
25664;BME280;13522;50.018;20.014;2023-09-19T04:07:46;98016.96;;;17.78;100.00
25664;BME280;13522;50.018;20.014;2023-09-19T04:11:00;98017.98;;;17.83;100.00
25664;BME280;13522;50.018;20.014;2023-09-19T04:14:12;98007.45;;;17.75;100.00
25664;BME280;13522;50.018;20.014;2023-09-19T04:17:24;98007.88;;;17.72;100.00
25664;BME280;13522;50.018;20.014;2023-09-19T04:20:37;98013.66;;;17.76;100.00
25664;BME280;13522;50.018;20.014;2023-09-19T04:23:49;98015.30;;;17.77;100.00
25664;BME280;13522;50.018;20.014;2023-09-19T04:27:01;98009.30;;;17.75;100.00
25664;BME280;13522;50.018;20.014;2023-09-19T04:30:16;98004.98;;;17.80;100.00
25664;BME280;13522;50.018;20.014;2023-09-19T04:33:28;98006.02;;;17.86;100.00
25664;BME280;13522;50.018;20.014;2023-09-19T04:36:41;98008.47;;;17.81;100.00
25664;BME280;13522;50.018;20.014;2023-09-19T04:39:53;98013.88;;;17.74;100.00
25664;BME280;13522;50.018;20.014;2023-09-19T04:43:06;98013.03;;;17.67;100.00
25664;BME280;13522;50.018;20.014;2023-09-19T04:46:18;98007.03;;;17.65;100.00
25664;BME280;13522;50.018;20.014;2023-09-19T04:49:31;98005.59;;;17.69;100.00
25664;BME280;13522;50.018;20.014;2023-09-19T04:52:44;98015.11;;;17.78;100.00
25664;BME280;13522;50.018;20.014;2023-09-19T04:55:56;98015.09;;;17.85;100.00
25664;BME280;13522;50.018;20.014;2023-09-19T04:59:10;98024.20;;;17.90;100.00
25664;BME280;13522;50.018;20.014;2023-09-19T05:02:22;98029.56;;;17.84;100.00
25664;BME280;13522;50.018;20.014;2023-09-19T05:05:34;98034.11;;;17.83;100.00
25664;BME280;13522;50.018;20.014;2023-09-19T05:08:47;98039.27;;;17.91;100.00
25664;BME280;13522;50.018;20.014;2023-09-19T05:11:59;98040.30;;;17.97;100.00
25664;BME280;13522;50.018;20.014;2023-09-19T05:15:11;98048.98;;;17.99;100.00
25664;BME280;13522;50.018;20.014;2023-09-19T05:18:24;98045.67;;;18.03;100.00
25664;BME280;13522;50.018;20.014;2023-09-19T05:21:38;98044.03;;;18.02;100.00
25664;BME280;13522;50.018;20.014;2023-09-19T05:24:50;98040.11;;;17.98;100.00
25664;BME280;13522;50.018;20.014;2023-09-19T05:28:03;98042.16;;;18.03;100.00
25664;BME280;13522;50.018;20.014;2023-09-19T05:31:16;98046.91;;;18.07;100.00
25664;BME280;13522;50.018;20.014;2023-09-19T05:34:30;98044.03;;;18.02;100.00
25664;BME280;13522;50.018;20.014;2023-09-19T05:37:42;98042.18;;;17.96;100.00
25664;BME280;13522;50.018;20.014;2023-09-19T05:40:55;98039.06;;;17.99;100.00
25664;BME280;13522;50.018;20.014;2023-09-19T05:44:08;98044.23;;;18.07;100.00
25664;BME280;13522;50.018;20.014;2023-09-19T05:47:21;98055.78;;;18.14;100.00
25664;BME280;13522;50.018;20.014;2023-09-19T05:50:33;98048.55;;;18.15;100.00
25664;BME280;13522;50.018;20.014;2023-09-19T05:53:45;98060.75;;;18.17;100.00
25664;BME280;13522;50.018;20.014;2023-09-19T05:56:58;98059.70;;;18.18;100.00
25664;BME280;13522;50.018;20.014;2023-09-19T06:00:13;98061.78;;;18.23;100.00
25664;BME280;13522;50.018;20.014;2023-09-19T06:03:28;98069.23;;;18.28;100.00
25664;BME280;13522;50.018;20.014;2023-09-19T06:06:41;98065.48;;;18.29;100.00
25664;BME280;13522;50.018;20.014;2023-09-19T06:09:55;98064.25;;;18.25;100.00
25664;BME280;13522;50.018;20.014;2023-09-19T06:13:08;98073.15;;;18.25;100.00
25664;BME280;13522;50.018;20.014;2023-09-19T06:16:21;98073.55;;;18.29;100.00
25664;BME280;13522;50.018;20.014;2023-09-19T06:19:33;98069.63;;;18.31;100.00
25664;BME280;13522;50.018;20.014;2023-09-19T06:22:47;98068.39;;;18.34;100.00
25664;BME280;13522;50.018;20.014;2023-09-19T06:26:00;98078.09;;;18.35;100.00
25664;BME280;13522;50.018;20.014;2023-09-19T06:29:14;98075.00;;;18.38;100.00
25664;BME280;13522;50.018;20.014;2023-09-19T06:32:30;98078.71;;;18.37;100.00
25664;BME280;13522;50.018;20.014;2023-09-19T06:35:42;98077.91;;;18.30;100.00
25664;BME280;13522;50.018;20.014;2023-09-19T06:38:55;98080.19;;;18.19;100.00
25664;BME280;13522;50.018;20.014;2023-09-19T06:42:07;98078.34;;;18.20;100.00
25664;BME280;13522;50.018;20.014;2023-09-19T06:45:21;98086.80;;;18.24;100.00
25664;BME280;13522;50.018;20.014;2023-09-19T06:48:34;98093.20;;;18.23;100.00
25664;BME280;13522;50.018;20.014;2023-09-19T06:51:46;98092.39;;;18.15;100.00
25664;BME280;13522;50.018;20.014;2023-09-19T06:54:59;98104.38;;;18.13;100.00
25664;BME280;13522;50.018;20.014;2023-09-19T06:58:13;98103.54;;;18.12;100.00
25664;BME280;13522;50.018;20.014;2023-09-19T07:01:26;98106.23;;;18.12;100.00
25664;BME280;13522;50.018;20.014;2023-09-19T07:04:40;98106.66;;;18.09;100.00
25664;BME280;13522;50.018;20.014;2023-09-19T07:07:53;98113.05;;;18.08;100.00
25664;BME280;13522;50.018;20.014;2023-09-19T07:11:06;98105.61;;;18.10;100.00
25664;BME280;13522;50.018;20.014;2023-09-19T07:14:18;98107.89;;;18.13;100.00
25664;BME280;13522;50.018;20.014;2023-09-19T07:17:31;98107.69;;;18.15;100.00
25664;BME280;13522;50.018;20.014;2023-09-19T07:20:44;98103.77;;;18.17;100.00
25664;BME280;13522;50.018;20.014;2023-09-19T07:24:01;98110.16;;;18.16;100.00
25664;BME280;13522;50.018;20.014;2023-09-19T07:27:14;98116.77;;;18.20;100.00
25664;BME280;13522;50.018;20.014;2023-09-19T07:30:27;98111.83;;;18.24;100.00
25664;BME280;13522;50.018;20.014;2023-09-19T07:33:39;98119.68;;;18.26;100.00
25664;BME280;13522;50.018;20.014;2023-09-19T07:36:52;98122.16;;;18.27;100.00
25664;BME280;13522;50.018;20.014;2023-09-19T07:40:06;98127.96;;;18.24;100.00
25664;BME280;13522;50.018;20.014;2023-09-19T07:43:20;98123.81;;;18.22;100.00
25664;BME280;13522;50.018;20.014;2023-09-19T07:46:33;98130.42;;;18.19;100.00
25664;BME280;13522;50.018;20.014;2023-09-19T07:49:47;98128.36;;;18.21;100.00
25664;BME280;13522;50.018;20.014;2023-09-19T07:53:02;98133.11;;;18.19;100.00
25664;BME280;13522;50.018;20.014;2023-09-19T07:56:15;98131.66;;;18.16;100.00
25664;BME280;13522;50.018;20.014;2023-09-19T07:59:29;98133.11;;;18.12;100.00
25664;BME280;13522;50.018;20.014;2023-09-19T08:02:42;98132.09;;;18.13;100.00
25664;BME280;13522;50.018;20.014;2023-09-19T08:05:59;98128.37;;;18.08;100.00
25664;BME280;13522;50.018;20.014;2023-09-19T08:09:11;98139.52;;;18.05;100.00
25664;BME280;13522;50.018;20.014;2023-09-19T08:12:28;98145.10;;;18.03;100.00
25664;BME280;13522;50.018;20.014;2023-09-19T08:15:45;98145.53;;;18.00;100.00
25664;BME280;13522;50.018;20.014;2023-09-19T08:18:59;98137.86;;;17.97;100.00
25664;BME280;13522;50.018;20.014;2023-09-19T08:22:12;98141.97;;;17.87;100.00
25664;BME280;13522;50.018;20.014;2023-09-19T08:25:25;98145.91;;;17.91;100.00
25664;BME280;13522;50.018;20.014;2023-09-19T08:28:37;98159.55;;;17.89;100.00
25664;BME280;13522;50.018;20.014;2023-09-19T08:31:51;98161.41;;;17.89;100.00
25664;BME280;13522;50.018;20.014;2023-09-19T08:35:05;98171.73;;;17.85;100.00
25664;BME280;13522;50.018;20.014;2023-09-19T08:38:19;98176.72;;;17.88;100.00
25664;BME280;13522;50.018;20.014;2023-09-19T08:41:33;98202.33;;;17.84;100.00
25664;BME280;13522;50.018;20.014;2023-09-19T08:44:45;98190.75;;;17.84;100.00
25664;BME280;13522;50.018;20.014;2023-09-19T08:48:03;98199.02;;;17.82;100.00
25664;BME280;13522;50.018;20.014;2023-09-19T08:51:25;98202.93;;;17.80;100.00
25664;BME280;13522;50.018;20.014;2023-09-19T08:54:41;98208.69;;;17.77;100.00
25664;BME280;13522;50.018;20.014;2023-09-19T08:57:59;98212.60;;;17.68;100.00
25664;BME280;13522;50.018;20.014;2023-09-19T09:01:14;98227.91;;;17.74;100.00
25664;BME280;13522;50.018;20.014;2023-09-19T09:04:29;98223.80;;;17.78;100.00
25664;BME280;13522;50.018;20.014;2023-09-19T09:07:42;98223.20;;;17.82;100.00
25664;BME280;13522;50.018;20.014;2023-09-19T09:10:56;98240.75;;;17.78;100.00
25664;BME280;13522;50.018;20.014;2023-09-19T09:14:09;98242.39;;;17.79;100.00
25664;BME280;13522;50.018;20.014;2023-09-19T09:17:21;98250.69;;;17.84;100.00
25664;BME280;13522;50.018;20.014;2023-09-19T09:20:34;98251.49;;;17.78;100.00
25664;BME280;13522;50.018;20.014;2023-09-19T09:23:47;98246.92;;;17.72;100.00
25664;BME280;13522;50.018;20.014;2023-09-19T09:27:00;98256.63;;;17.73;100.00
25664;BME280;13522;50.018;20.014;2023-09-19T09:30:33;98254.18;;;17.78;100.00
25664;BME280;13522;50.018;20.014;2023-09-19T09:33:53;98267.16;;;17.68;100.00
25664;BME280;13522;50.018;20.014;2023-09-19T09:37:06;98270.05;;;17.73;100.00
25664;BME280;13522;50.018;20.014;2023-09-19T09:40:21;98271.69;;;17.68;100.00
25664;BME280;13522;50.018;20.014;2023-09-19T09:43:38;98281.42;;;17.69;100.00
25664;BME280;13522;50.018;20.014;2023-09-19T09:46:53;98282.86;;;17.71;100.00
25664;BME280;13522;50.018;20.014;2023-09-19T09:50:12;98291.92;;;17.64;100.00
25664;BME280;13522;50.018;20.014;2023-09-19T09:53:26;98297.08;;;17.65;100.00
25664;BME280;13522;50.018;20.014;2023-09-19T09:56:53;98301.83;;;17.63;100.00
25664;BME280;13522;50.018;20.014;2023-09-19T10:00:12;98315.88;;;17.65;100.00
25664;BME280;13522;50.018;20.014;2023-09-19T10:03:37;98321.08;;;17.67;100.00
25664;BME280;13522;50.018;20.014;2023-09-19T10:06:53;98316.72;;;17.66;100.00
25664;BME280;13522;50.018;20.014;2023-09-19T10:10:08;98327.03;;;17.62;100.00
25664;BME280;13522;50.018;20.014;2023-09-19T10:13:23;98340.26;;;17.64;100.00
25664;BME280;13522;50.018;20.014;2023-09-19T10:16:45;98338.41;;;17.64;100.00
25664;BME280;13522;50.018;20.014;2023-09-19T10:19:58;98344.79;;;17.63;100.00
25664;BME280;13522;50.018;20.014;2023-09-19T10:23:14;98345.05;;;17.68;100.00
25664;BME280;13522;50.018;20.014;2023-09-19T10:26:32;98344.47;;;17.79;100.00
25664;BME280;13522;50.018;20.014;2023-09-19T10:29:50;98345.34;;;17.86;100.00
25664;BME280;13522;50.018;20.014;2023-09-19T10:33:06;98289.98;;;17.51;100.00
25664;BME280;13522;50.018;20.014;2023-09-19T10:36:19;98349.47;;;17.89;100.00
25664;BME280;13522;50.018;20.014;2023-09-19T10:39:33;98349.13;;;17.98;100.00
25664;BME280;13522;50.018;20.014;2023-09-19T10:42:47;98352.62;;;17.99;100.00
25664;BME280;13522;50.018;20.014;2023-09-19T10:46:06;98360.09;;;18.03;100.00
25664;BME280;13522;50.018;20.014;2023-09-19T10:49:20;98348.75;;;18.08;100.00
25664;BME280;13522;50.018;20.014;2023-09-19T10:52:33;98362.36;;;18.06;100.00
25664;BME280;13522;50.018;20.014;2023-09-19T10:55:55;98368.58;;;18.07;100.00
25664;BME280;13522;50.018;20.014;2023-09-19T10:59:14;98364.03;;;18.07;100.00
25664;BME280;13522;50.018;20.014;2023-09-19T11:02:28;98368.58;;;18.07;100.00
25664;BME280;13522;50.018;20.014;2023-09-19T11:05:43;98369.41;;;18.07;100.00
25664;BME280;13522;50.018;20.014;2023-09-19T11:08:58;98379.36;;;18.13;100.00
25664;BME280;13522;50.018;20.014;2023-09-19T11:12:50;98379.53;;;18.05;100.00
25664;BME280;13522;50.018;20.014;2023-09-19T11:16:07;98380.55;;;18.04;100.00
25664;BME280;13522;50.018;20.014;2023-09-19T11:19:19;98382.01;;;18.07;100.00
25664;BME280;13522;50.018;20.014;2023-09-19T11:22:39;98383.48;;;18.09;100.00
25664;BME280;13522;50.018;20.014;2023-09-19T11:26:13;98388.43;;;18.06;100.00
25664;BME280;13522;50.018;20.014;2023-09-19T11:29:38;98390.06;;;18.00;100.00
25664;BME280;13522;50.018;20.014;2023-09-19T11:33:18;98389.61;;;17.97;100.00
25664;BME280;13522;50.018;20.014;2023-09-19T11:36:37;98395.14;;;17.89;100.00
25664;BME280;13522;50.018;20.014;2023-09-19T11:40:08;98399.08;;;17.86;100.00
25664;BME280;13522;50.018;20.014;2023-09-19T11:43:34;98399.08;;;17.86;100.00
25664;BME280;13522;50.018;20.014;2023-09-19T11:46:55;98405.26;;;17.87;100.00
25664;BME280;13522;50.018;20.014;2023-09-19T11:50:10;98404.20;;;17.81;100.00
25664;BME280;13522;50.018;20.014;2023-09-19T11:53:25;98405.63;;;17.77;100.00
25664;BME280;13522;50.018;20.014;2023-09-19T11:56:46;98408.72;;;17.74;100.00
25664;BME280;13522;50.018;20.014;2023-09-19T12:00:00;98407.30;;;17.78;100.00
25664;BME280;13522;50.018;20.014;2023-09-19T12:03:17;98405.63;;;17.77;100.00
25664;BME280;13522;50.018;20.014;2023-09-19T12:06:31;98410.16;;;17.77;100.00
25664;BME280;13522;50.018;20.014;2023-09-19T12:09:46;98415.36;;;17.78;100.00
25664;BME280;13522;50.018;20.014;2023-09-19T12:12:59;98407.25;;;17.72;100.00
25664;BME280;13522;50.018;20.014;2023-09-19T12:16:17;98407.05;;;17.73;100.00
25664;BME280;13522;50.018;20.014;2023-09-19T12:19:32;98419.20;;;17.69;100.00
25664;BME280;13522;50.018;20.014;2023-09-19T12:22:46;98417.99;;;17.72;100.00
25664;BME280;13522;50.018;20.014;2023-09-19T12:25:59;98419.64;;;17.73;100.00
25664;BME280;13522;50.018;20.014;2023-09-19T12:29:17;98417.58;;;17.75;100.00
25664;BME280;13522;50.018;20.014;2023-09-19T12:32:37;98422.58;;;17.78;100.00
25664;BME280;13522;50.018;20.014;2023-09-19T12:35:50;98426.69;;;17.74;100.00
25664;BME280;13522;50.018;20.014;2023-09-19T12:39:05;98426.73;;;17.80;100.00
25664;BME280;13522;50.018;20.014;2023-09-19T12:42:19;98421.16;;;17.82;100.00
25664;BME280;13522;50.018;20.014;2023-09-19T12:45:36;98424.70;;;17.89;100.00
25664;BME280;13522;50.018;20.014;2023-09-19T12:48:49;98417.48;;;17.89;100.00
25664;BME280;13522;50.018;20.014;2023-09-19T12:52:18;98418.52;;;17.88;100.00
25664;BME280;13522;50.018;20.014;2023-09-19T12:55:32;98419.33;;;17.89;100.00
25664;BME280;13522;50.018;20.014;2023-09-19T12:58:55;98425.97;;;17.93;100.00
25664;BME280;13522;50.018;20.014;2023-09-19T13:02:09;98418.58;;;18.01;100.00
25664;BME280;13522;50.018;20.014;2023-09-19T13:05:55;98419.63;;;18.00;100.00
25664;BME280;13522;50.018;20.014;2023-09-19T13:09:12;98420.01;;;17.97;100.00
25664;BME280;13522;50.018;20.014;2023-09-19T13:12:40;98425.17;;;17.99;100.00
25664;BME280;13522;50.018;20.014;2023-09-19T13:15:52;98432.45;;;18.05;100.00
25664;BME280;13522;50.018;20.014;2023-09-19T13:19:08;98426.44;;;18.03;100.00
25664;BME280;13522;50.018;20.014;2023-09-19T13:22:40;98429.96;;;18.03;100.00
25664;BME280;13522;50.018;20.014;2023-09-19T13:25:56;98439.71;;;18.11;100.00
25664;BME280;13522;50.018;20.014;2023-09-19T13:29:10;98430.18;;;18.08;100.00
25664;BME280;13522;50.018;20.014;2023-09-19T13:32:24;98444.66;;;18.07;100.00
25664;BME280;13522;50.018;20.014;2023-09-19T13:35:38;98442.36;;;18.04;100.00
25664;BME280;13522;50.018;20.014;2023-09-19T13:38:50;98451.94;;;18.13;100.00
25664;BME280;13522;50.018;20.014;2023-09-19T13:42:03;98452.95;;;18.12;100.00
25664;BME280;13522;50.018;20.014;2023-09-19T13:45:17;98456.27;;;18.14;100.00
25664;BME280;13522;50.018;20.014;2023-09-19T13:48:30;98462.91;;;18.18;100.00
25664;BME280;13522;50.018;20.014;2023-09-19T13:51:45;98457.53;;;18.18;100.00
25664;BME280;13522;50.018;20.014;2023-09-19T13:54:58;98454.46;;;18.22;100.00
25664;BME280;13522;50.018;20.014;2023-09-19T13:58:11;98451.39;;;18.31;100.00
25664;BME280;13522;50.018;20.014;2023-09-19T14:01:24;98454.62;;;18.48;100.00
25664;BME280;13522;50.018;20.014;2023-09-19T14:04:37;98461.08;;;18.60;100.00
25664;BME280;13522;50.018;20.014;2023-09-19T14:07:49;98458.84;;;18.76;100.00
25664;BME280;13522;50.018;20.014;2023-09-19T14:11:06;98451.19;;;18.80;100.00
25664;BME280;13522;50.018;20.014;2023-09-19T14:14:20;98450.38;;;18.86;100.00
25664;BME280;13522;50.018;20.014;2023-09-19T14:17:32;98446.28;;;19.03;100.00
25664;BME280;13522;50.018;20.014;2023-09-19T14:20:46;98443.59;;;19.03;100.00
25664;BME280;13522;50.018;20.014;2023-09-19T14:23:59;98440.50;;;19.13;100.00
25664;BME280;13522;50.018;20.014;2023-09-19T14:27:14;98449.21;;;19.21;100.00
25664;BME280;13522;50.018;20.014;2023-09-19T14:30:26;98455.03;;;19.38;100.00
25664;BME280;13522;50.018;20.014;2023-09-19T14:33:39;98459.81;;;19.42;100.00
25664;BME280;13522;50.018;20.014;2023-09-19T14:36:54;98455.23;;;19.49;100.00
25664;BME280;13522;50.018;20.014;2023-09-19T14:40:09;98455.88;;;19.45;100.00
25664;BME280;13522;50.018;20.014;2023-09-19T14:43:25;98463.10;;;19.31;100.00
25664;BME280;13522;50.018;20.014;2023-09-19T14:46:39;98459.98;;;19.21;100.00
25664;BME280;13522;50.018;20.014;2023-09-19T14:49:51;98473.00;;;19.18;100.00
25664;BME280;13522;50.018;20.014;2023-09-19T14:53:04;98467.63;;;19.11;100.00
25664;BME280;13522;50.018;20.014;2023-09-19T14:56:18;98473.41;;;19.08;100.00
25664;BME280;13522;50.018;20.014;2023-09-19T14:59:32;98479.85;;;19.20;100.00
25664;BME280;13522;50.018;20.014;2023-09-19T15:02:44;98477.01;;;19.35;100.00
25664;BME280;13522;50.018;20.014;2023-09-19T15:06:01;98478.86;;;19.47;100.00
25664;BME280;13522;50.018;20.014;2023-09-19T15:09:15;98484.27;;;19.54;100.00
25664;BME280;13522;50.018;20.014;2023-09-19T15:12:29;98469.95;;;19.53;100.00
25664;BME280;13522;50.018;20.014;2023-09-19T15:15:44;98484.88;;;19.49;100.00
25664;BME280;13522;50.018;20.014;2023-09-19T15:18:56;98478.47;;;19.50;100.00
25664;BME280;13522;50.018;20.014;2023-09-19T15:22:09;98477.42;;;19.38;100.00
25664;BME280;13522;50.018;20.014;2023-09-19T15:25:21;98481.56;;;19.34;100.00
25664;BME280;13522;50.018;20.014;2023-09-19T15:28:34;98483.20;;;19.35;100.00
25664;BME280;13522;50.018;20.014;2023-09-19T15:31:47;98483.00;;;19.43;100.00
25664;BME280;13522;50.018;20.014;2023-09-19T15:35:00;98482.38;;;19.41;100.00
25664;BME280;13522;50.018;20.014;2023-09-19T15:38:14;98478.03;;;19.34;100.00
25664;BME280;13522;50.018;20.014;2023-09-19T15:41:27;98478.41;;;19.24;100.00
25664;BME280;13522;50.018;20.014;2023-09-19T15:44:40;98488.16;;;19.25;100.00
25664;BME280;13522;50.018;20.014;2023-09-19T15:47:56;98487.30;;;19.18;100.00
25664;BME280;13522;50.018;20.014;2023-09-19T15:51:09;98494.13;;;19.14;100.00
25664;BME280;13522;50.018;20.014;2023-09-19T15:54:22;98492.03;;;19.10;100.00
25664;BME280;13522;50.018;20.014;2023-09-19T15:57:40;98493.48;;;19.05;100.00
25664;BME280;13522;50.018;20.014;2023-09-19T16:00:52;98487.68;;;19.02;100.00
25664;BME280;13522;50.018;20.014;2023-09-19T16:04:06;98500.09;;;18.96;100.00
25664;BME280;13522;50.018;20.014;2023-09-19T16:07:19;98505.90;;;18.93;100.00
25664;BME280;13522;50.018;20.014;2023-09-19T16:10:31;98503.17;;;18.87;100.00
25664;BME280;13522;50.018;20.014;2023-09-19T16:13:49;98504.61;;;18.83;100.00
25664;BME280;13522;50.018;20.014;2023-09-19T16:17:03;98503.98;;;18.81;100.00
25664;BME280;13522;50.018;20.014;2023-09-19T16:20:19;98512.44;;;18.78;100.00
25664;BME280;13522;50.018;20.014;2023-09-19T16:23:31;98509.54;;;18.73;100.00
25664;BME280;13522;50.018;20.014;2023-09-19T16:26:44;98511.60;;;18.71;100.00
25664;BME280;13522;50.018;20.014;2023-09-19T16:29:59;98503.31;;;18.66;100.00
25664;BME280;13522;50.018;20.014;2023-09-19T16:33:11;98505.38;;;18.64;100.00
25664;BME280;13522;50.018;20.014;2023-09-19T16:36:25;98507.23;;;18.63;100.00
25664;BME280;13522;50.018;20.014;2023-09-19T16:39:38;98504.54;;;18.63;100.00
25664;BME280;13522;50.018;20.014;2023-09-19T16:42:51;98497.06;;;18.59;100.00
25664;BME280;13522;50.018;20.014;2023-09-19T16:46:10;98502.65;;;18.57;100.00